createdAt,value
2023-02-19T00:04:59.805Z,56.70
2023-02-19T00:10:01.394Z,56.66
2023-02-19T00:15:05.070Z,56.72
2023-02-19T00:20:07.047Z,56.70
2023-02-19T00:25:08.645Z,57.18
2023-02-19T00:30:10.749Z,56.98
2023-02-19T00:35:12.323Z,57.02
2023-02-19T00:40:14.126Z,56.96
2023-02-19T00:45:15.892Z,57.27
2023-02-19T00:50:17.564Z,57.43
2023-02-19T00:55:19.151Z,57.73
2023-02-19T01:00:20.987Z,57.69
2023-02-19T01:05:22.668Z,58.12
2023-02-19T01:10:24.369Z,58.32
2023-02-19T01:15:26.264Z,58.43
2023-02-19T01:20:28.443Z,58.64
2023-02-19T01:25:30.071Z,58.80
2023-02-19T01:30:34.797Z,58.46
2023-02-19T01:35:40.087Z,59.24
2023-02-19T01:40:41.758Z,59.38
2023-02-19T01:45:45.642Z,59.07
2023-02-19T01:50:54.437Z,59.41
2023-02-19T01:55:59.845Z,59.34
2023-02-19T02:01:07.077Z,59.79
2023-02-19T02:06:21.296Z,59.70
2023-02-19T02:11:23.193Z,59.36
2023-02-19T02:17:06.197Z,59.55
2023-02-19T02:22:39.396Z,59.83
2023-02-19T02:27:54.041Z,60.17
2023-02-19T02:33:03.489Z,60.03
2023-02-19T02:38:08.998Z,60.13
2023-02-19T02:43:11.954Z,60.42
2023-02-19T02:48:39.066Z,60.53
2023-02-19T02:54:11.566Z,60.32
2023-02-19T02:59:18.308Z,60.38
2023-02-19T03:04:29.721Z,60.51
2023-02-19T03:09:43.084Z,60.53
2023-02-19T03:15:07.781Z,60.60
2023-02-19T03:20:13.865Z,60.34
2023-02-19T03:25:40.014Z,60.65
2023-02-19T03:30:47.659Z,60.80
2023-02-19T03:35:56.987Z,60.42
2023-02-19T03:41:23.994Z,60.61
2023-02-19T03:46:40.354Z,60.48
2023-02-19T03:51:51.400Z,60.78
2023-02-19T03:57:03.488Z,60.59
2023-02-19T04:02:14.828Z,60.85
2023-02-19T04:07:40.062Z,61.09
2023-02-19T04:12:48.549Z,61.46
2023-02-19T04:18:01.670Z,61.36
2023-02-19T04:23:03.492Z,61.54
2023-02-19T04:28:05.533Z,61.42
2023-02-19T04:33:07.338Z,61.26
2023-02-19T04:38:09.005Z,61.24
2023-02-19T04:43:10.722Z,61.19
2023-02-19T04:48:12.658Z,61.18
2023-02-19T04:53:14.259Z,61.31
2023-02-19T04:58:15.854Z,61.74
2023-02-19T05:03:17.432Z,61.52
2023-02-19T05:08:19.342Z,61.63
2023-02-19T05:13:21.097Z,61.65
2023-02-19T05:18:22.868Z,61.81
2023-02-19T05:23:24.901Z,61.86
2023-02-19T05:28:28.954Z,61.69
2023-02-19T05:33:30.613Z,62.07
2023-02-19T05:38:32.552Z,61.72
2023-02-19T05:43:34.258Z,62.03
2023-02-19T05:48:36.184Z,61.76
2023-02-19T05:53:39.584Z,61.70
2023-02-19T05:58:41.218Z,61.68
2023-02-19T06:03:43.107Z,61.63
2023-02-19T06:08:44.815Z,61.41
2023-02-19T06:13:47.164Z,61.33
2023-02-19T06:18:49.538Z,61.47
2023-02-19T06:23:51.088Z,61.20
2023-02-19T06:28:54.092Z,61.10
2023-02-19T06:33:55.777Z,61.13
2023-02-19T06:39:00.991Z,61.07
2023-02-19T06:44:02.609Z,61.23
2023-02-19T06:49:05.353Z,61.15
2023-02-19T06:54:07.274Z,60.61
2023-02-19T06:59:12.496Z,61.24
2023-02-19T07:04:16.724Z,60.66
2023-02-19T07:09:18.455Z,60.82
2023-02-19T07:14:20.916Z,60.81
2023-02-19T07:19:22.394Z,60.47
2023-02-19T07:24:26.143Z,60.35
2023-02-19T07:29:27.674Z,60.46
2023-02-19T07:34:29.288Z,60.45
2023-02-19T07:39:30.848Z,60.49
2023-02-19T07:44:34.978Z,60.40
2023-02-19T07:49:36.588Z,60.21
2023-02-19T07:54:38.124Z,60.30
2023-02-19T07:59:39.687Z,60.14
2023-02-19T08:04:41.224Z,59.96
2023-02-19T08:09:42.804Z,60.30
2023-02-19T08:14:44.484Z,60.16
2023-02-19T08:19:46.051Z,59.95
2023-02-19T08:24:48.851Z,59.99
2023-02-19T08:29:50.474Z,59.76
2023-02-19T08:34:52.057Z,59.54
2023-02-19T08:39:53.636Z,59.67
2023-02-19T08:44:55.268Z,59.33
2023-02-19T08:49:56.815Z,59.29
2023-02-19T08:54:58.828Z,59.60
2023-02-19T09:00:00.633Z,59.56
2023-02-19T09:05:02.413Z,59.52
2023-02-19T09:10:05.344Z,59.28
2023-02-19T09:15:08.001Z,59.58
2023-02-19T09:20:10.603Z,59.13
2023-02-19T09:25:12.200Z,59.30
2023-02-19T09:30:13.868Z,59.72
2023-02-19T09:35:15.441Z,59.09
2023-02-19T09:40:21.505Z,59.43
2023-02-19T09:45:27.492Z,59.35
2023-02-19T09:50:36.148Z,59.08
2023-02-19T09:55:44.075Z,58.96
2023-02-19T10:00:49.573Z,58.88
2023-02-19T10:05:53.148Z,58.60
2023-02-19T10:10:54.977Z,58.62
2023-02-19T10:15:58.721Z,58.13
2023-02-19T10:21:00.350Z,58.16
2023-02-19T10:26:01.802Z,58.31
2023-02-19T10:31:11.392Z,58.29
2023-02-19T10:36:47.303Z,58.15
2023-02-19T10:41:50.959Z,57.91
2023-02-19T10:46:57.477Z,58.54
2023-02-19T10:52:12.386Z,58.21
2023-02-19T10:57:21.097Z,58.03
2023-02-19T11:02:22.935Z,57.79
2023-02-19T11:07:24.483Z,57.58
2023-02-19T11:12:29.765Z,57.51
2023-02-19T11:17:31.379Z,57.18
2023-02-19T11:22:37.793Z,57.09
2023-02-19T11:28:13.682Z,57.27
2023-02-19T11:33:22.236Z,57.08
2023-02-19T11:38:23.822Z,56.98
2023-02-19T11:43:44.007Z,56.94
2023-02-19T11:49:06.957Z,56.69
2023-02-19T11:54:32.148Z,57.00
2023-02-19T12:00:13.764Z,57.11
2023-02-19T12:05:23.896Z,56.92
2023-02-19T12:10:25.505Z,56.76
2023-02-19T12:21:04.494Z,56.86
2023-02-19T12:26:15.024Z,56.72
2023-02-19T12:31:34.654Z,56.61
2023-02-19T12:36:50.042Z,57.04
2023-02-19T12:42:07.554Z,57.17
2023-02-19T12:47:18.302Z,57.52
2023-02-19T12:52:28.246Z,57.74
2023-02-19T12:57:39.243Z,57.91
2023-02-19T13:03:08.654Z,57.76
2023-02-19T13:08:34.757Z,58.07
2023-02-19T13:13:43.737Z,58.36
2023-02-19T13:18:50.011Z,58.00
2023-02-19T13:24:02.844Z,57.41
2023-02-19T13:29:33.036Z,57.39
2023-02-19T13:35:12.408Z,56.68
2023-02-19T13:40:39.370Z,56.83
2023-02-19T13:45:43.868Z,56.81
2023-02-19T13:50:45.451Z,56.71
2023-02-19T13:55:51.442Z,56.20
2023-02-19T14:00:54.690Z,56.05
2023-02-19T14:06:02.586Z,55.57
2023-02-19T14:11:05.001Z,55.77
2023-02-19T14:16:52.795Z,55.13
2023-02-19T14:21:54.531Z,55.14
2023-02-19T14:26:57.158Z,54.68
2023-02-19T14:32:01.029Z,54.74
2023-02-19T14:37:06.778Z,54.71
2023-02-19T14:42:12.989Z,54.82
2023-02-19T14:47:18.337Z,54.97
2023-02-19T14:52:28.920Z,55.01
2023-02-19T14:57:35.681Z,55.16
2023-02-19T15:02:43.192Z,55.21
2023-02-19T15:07:45.493Z,55.29
2023-02-19T15:13:01.155Z,55.41
2023-02-19T15:18:05.119Z,54.99
2023-02-19T15:23:07.785Z,55.41
2023-02-19T15:28:38.568Z,55.47
2023-02-19T15:33:50.876Z,55.31
2023-02-19T15:38:54.774Z,55.70
2023-02-19T15:44:01.423Z,55.96
2023-02-19T15:49:11.270Z,55.85
2023-02-19T15:54:38.303Z,55.63
2023-02-19T15:59:46.676Z,56.10
2023-02-19T16:04:48.209Z,56.00
2023-02-19T16:10:30.756Z,56.24
2023-02-19T16:15:33.306Z,55.87
2023-02-19T16:20:36.054Z,56.18
2023-02-19T16:25:42.145Z,56.34
2023-02-19T16:30:44.070Z,56.04
2023-02-19T16:35:48.028Z,56.12
2023-02-19T16:40:50.576Z,55.73
2023-02-19T16:45:52.386Z,56.21
2023-02-19T16:50:53.984Z,55.96
2023-02-19T16:55:58.463Z,56.17
2023-02-19T17:01:02.376Z,56.15
2023-02-19T17:06:04.387Z,56.05
2023-02-19T17:11:10.807Z,56.04
2023-02-19T17:16:25.162Z,56.20
2023-02-19T17:21:29.250Z,56.31
2023-02-19T17:26:33.850Z,56.34
2023-02-19T17:31:35.586Z,56.07
2023-02-19T17:36:42.815Z,56.09
2023-02-19T17:41:44.348Z,56.08
2023-02-19T17:46:50.249Z,56.25
2023-02-19T17:51:51.803Z,56.23
2023-02-19T17:56:53.336Z,56.78
2023-02-19T18:01:57.049Z,56.61
2023-02-19T18:06:58.572Z,56.71
2023-02-19T18:12:02.374Z,57.15
2023-02-19T18:17:03.911Z,57.03
2023-02-19T18:22:06.647Z,57.26
2023-02-19T18:27:08.249Z,57.11
2023-02-19T18:32:10.007Z,57.34
2023-02-19T18:37:11.648Z,57.27
2023-02-19T18:42:13.417Z,57.64
2023-02-19T18:47:15.960Z,57.83
2023-02-19T18:52:20.376Z,57.75
2023-02-19T18:57:26.505Z,57.78
2023-02-19T19:02:33.764Z,57.94
2023-02-19T19:07:41.078Z,57.89
2023-02-19T19:12:42.765Z,57.72
2023-02-19T19:17:44.356Z,57.87
2023-02-19T19:22:46.293Z,57.98
2023-02-19T19:27:50.344Z,58.00
2023-02-19T19:32:52.731Z,58.45
2023-02-19T19:37:54.369Z,58.35
2023-02-19T19:42:55.909Z,58.62
2023-02-19T19:47:57.414Z,58.19
2023-02-19T19:52:58.985Z,58.58
2023-02-19T19:58:01.277Z,58.13
2023-02-19T20:03:03.356Z,58.06
2023-02-19T20:08:05.586Z,58.25
2023-02-19T20:13:07.428Z,58.22
2023-02-19T20:18:12.263Z,58.44
2023-02-19T20:23:13.824Z,58.53
2023-02-19T20:28:15.492Z,58.20
2023-02-19T20:33:17.051Z,58.25
2023-02-19T20:38:18.621Z,58.72
2023-02-19T20:43:20.185Z,58.20
2023-02-19T20:48:21.858Z,58.06
2023-02-19T20:53:23.399Z,58.37
2023-02-19T20:58:26.283Z,58.11
2023-02-19T21:03:30.195Z,58.31
2023-02-19T21:08:31.781Z,58.48
2023-02-19T21:13:35.031Z,58.38
2023-02-19T21:18:36.630Z,58.41
2023-02-19T21:23:38.247Z,58.19
2023-02-19T21:28:40.605Z,58.25
2023-02-19T21:33:42.227Z,57.67
2023-02-19T21:38:43.801Z,57.93
2023-02-19T21:43:45.368Z,57.75
2023-02-19T21:48:51.087Z,57.66
2023-02-19T21:53:52.660Z,57.86
2023-02-19T21:58:54.714Z,57.96
2023-02-19T22:03:56.338Z,57.75
2023-02-19T22:08:59.334Z,57.81
2023-02-19T22:14:01.137Z,57.99
2023-02-19T22:19:03.010Z,57.86
2023-02-19T22:24:05.061Z,57.83
2023-02-19T22:29:08.274Z,57.77
2023-02-19T22:34:10.109Z,57.93
2023-02-19T22:39:21.452Z,57.57
2023-02-19T22:44:23.079Z,57.61
2023-02-19T22:49:24.940Z,57.46
2023-02-19T22:54:29.335Z,57.49
2023-02-19T22:59:31.278Z,57.62
2023-02-19T23:04:32.880Z,57.55
2023-02-19T23:09:34.608Z,57.77
2023-02-19T23:14:36.556Z,57.45
2023-02-19T23:19:38.132Z,57.51
2023-02-19T23:24:40.032Z,57.85
2023-02-19T23:29:44.120Z,57.62
2023-02-19T23:34:45.683Z,57.66
2023-02-19T23:39:47.241Z,58.06
2023-02-19T23:44:49.087Z,58.03
2023-02-19T23:49:50.672Z,57.99
2023-02-19T23:54:52.228Z,58.48
2023-02-19T23:59:55.521Z,58.34
